Time;durP1;ratioP1;P1;durP2;ratioP2;P2;SDS_P1;SDS_P2;PMS_P1;PMS_P2;Temp;Humidity;BMP_temperature;BMP_pressure;BME280_temperature;BME280_humidity;BME280_pressure;Samples;Min_cycle;Max_cycle;Signal;HPM_P1;HPM_P2
2021/07/18 00:01:18;;;;;;;7.07;1.90;;;18.10;99.90;;;;;;5055892;28;20545;-92
2021/07/18 00:03:43;;;;;;;5.57;1.83;;;18.00;99.90;;;;;;5065045;28;20714;-91
2021/07/18 00:06:09;;;;;;;5.50;2.20;;;18.10;99.90;;;;;;5061328;28;20418;-92
2021/07/18 00:08:34;;;;;;;6.30;1.70;;;18.10;99.90;;;;;;5059294;28;20576;-91
2021/07/18 00:11:00;;;;;;;5.53;2.10;;;18.00;99.90;;;;;;5057367;28;20214;-90
2021/07/18 00:13:26;;;;;;;5.43;1.40;;;18.00;99.90;;;;;;5059032;28;20177;-91
2021/07/18 00:15:51;;;;;;;4.80;1.77;;;17.90;99.90;;;;;;5064479;28;20180;-92
2021/07/18 00:18:17;;;;;;;4.07;1.40;;;17.90;99.90;;;;;;5069628;28;20257;-91
2021/07/18 00:20:43;;;;;;;4.90;1.43;;;17.90;99.90;;;;;;5097059;28;20176;-94
2021/07/18 00:23:09;;;;;;;5.00;1.87;;;17.90;99.90;;;;;;5073106;28;20182;-91
2021/07/18 00:25:35;;;;;;;8.90;2.17;;;17.90;99.90;;;;;;5058795;28;20436;-92
2021/07/18 00:28:02;;;;;;;5.50;1.30;;;17.90;99.90;;;;;;5058009;28;20293;-93
2021/07/18 00:30:28;;;;;;;4.50;1.37;;;17.80;99.90;;;;;;5058634;28;20422;-90
2021/07/18 00:32:54;;;;;;;7.17;2.13;;;17.80;99.90;;;;;;5058541;28;20483;-92
2021/07/18 00:35:20;;;;;;;4.33;1.57;;;17.80;99.90;;;;;;5059192;28;20232;-91
2021/07/18 00:37:46;;;;;;;2.70;1.63;;;17.90;99.90;;;;;;5058274;28;20418;-92
2021/07/18 00:40:13;;;;;;;5.83;2.17;;;17.80;99.90;;;;;;5076532;28;20165;-94
2021/07/18 00:42:39;;;;;;;4.07;1.83;;;17.70;99.90;;;;;;5058379;28;20425;-90
2021/07/18 00:45:07;;;;;;;4.70;1.20;;;17.70;99.90;;;;;;5058333;28;20417;-92
2021/07/18 00:47:34;;;;;;;3.93;1.50;;;17.80;99.90;;;;;;5076106;28;20944;-91
2021/07/18 00:50:05;;;;;;;5.30;2.53;;;17.70;99.90;;;;;;5058126;28;20457;-93
2021/07/18 00:52:30;;;;;;;3.40;1.63;;;17.70;99.90;;;;;;5057521;28;20414;-91
2021/07/18 00:54:56;;;;;;;5.63;2.23;;;17.70;99.90;;;;;;5075261;28;20421;-92
2021/07/18 00:57:22;;;;;;;5.03;1.77;;;17.70;99.90;;;;;;5071429;28;20182;-91
2021/07/18 00:59:48;;;;;;;3.40;1.67;;;17.70;99.90;;;;;;5057585;28;20208;-91
2021/07/18 01:02:15;;;;;;;5.40;2.00;;;17.60;99.90;;;;;;5075844;28;20412;-90
2021/07/18 01:04:41;;;;;;;4.27;2.03;;;17.60;99.90;;;;;;5057753;28;20851;-92
2021/07/18 01:07:07;;;;;;;4.23;1.47;;;17.60;99.90;;;;;;5058245;28;20429;-92
2021/07/18 01:09:34;;;;;;;5.63;1.70;;;17.60;99.90;;;;;;5057358;28;20744;-90
2021/07/18 01:12:00;;;;;;;2.73;1.07;;;17.60;99.90;;;;;;5075365;28;20171;-91
2021/07/18 01:14:26;;;;;;;4.83;1.93;;;17.60;99.90;;;;;;5075111;28;20541;-90
2021/07/18 01:16:52;;;;;;;3.50;1.23;;;17.60;99.90;;;;;;5057133;28;20204;-91
2021/07/18 01:19:19;;;;;;;6.47;1.50;;;17.60;99.90;;;;;;5057441;28;20536;-91
2021/07/18 01:21:58;;;;;;;5.83;1.63;;;17.60;99.90;;;;;;5057821;28;20238;-91
2021/07/18 01:24:24;;;;;;;6.40;2.30;;;17.40;99.90;;;;;;5061858;28;20785;-91
2021/07/18 01:26:50;;;;;;;3.60;0.80;;;17.40;99.90;;;;;;5074265;28;20425;-90
2021/07/18 01:29:16;;;;;;;5.60;1.17;;;17.40;99.90;;;;;;5062130;28;20473;-92
2021/07/18 01:31:41;;;;;;;6.00;1.03;;;17.30;99.90;;;;;;5073828;28;20427;-91
2021/07/18 01:34:07;;;;;;;5.67;1.57;;;17.30;99.90;;;;;;5057015;28;20268;-91
2021/07/18 01:36:32;;;;;;;2.93;1.70;;;17.30;99.90;;;;;;5057202;28;20186;-92
2021/07/18 01:38:58;;;;;;;4.80;1.80;;;17.30;99.90;;;;;;5056940;28;20183;-91
2021/07/18 01:41:24;;;;;;;3.23;1.40;;;17.30;99.90;;;;;;5074798;28;20171;-92
2021/07/18 01:43:49;;;;;;;3.83;1.47;;;17.20;99.90;;;;;;5074520;28;20257;-90
2021/07/18 01:46:15;;;;;;;4.30;1.77;;;17.20;99.90;;;;;;5074412;28;20179;-92
2021/07/18 01:48:41;;;;;;;5.03;1.63;;;17.20;99.90;;;;;;5074443;28;20687;-91
2021/07/18 01:51:07;;;;;;;4.50;3.80;;;17.10;99.90;;;;;;5057009;28;20176;-91
2021/07/18 01:53:32;;;;;;;2.30;1.07;;;17.10;99.90;;;;;;5056606;28;20466;-91
2021/07/18 01:55:58;;;;;;;4.10;1.43;;;17.10;99.90;;;;;;5056824;28;20178;-90
2021/07/18 01:58:28;;;;;;;5.63;2.03;;;17.00;99.90;;;;;;5056783;28;20177;-91
2021/07/18 02:00:54;;;;;;;4.47;1.20;;;17.00;99.90;;;;;;5074708;28;20197;-90
2021/07/18 02:03:19;;;;;;;3.80;1.80;;;16.90;99.90;;;;;;5074463;28;20428;-91
2021/07/18 02:05:45;;;;;;;5.00;1.67;;;16.90;99.90;;;;;;5074226;28;20451;-92
2021/07/18 02:08:11;;;;;;;3.90;1.37;;;16.90;99.90;;;;;;5056576;28;20311;-93
2021/07/18 02:10:36;;;;;;;5.07;1.90;;;16.90;99.90;;;;;;5056819;28;20210;-94
2021/07/18 02:13:02;;;;;;;4.70;1.77;;;16.80;99.90;;;;;;5056652;28;20179;-93
2021/07/18 02:15:28;;;;;;;5.13;2.00;;;16.80;99.90;;;;;;5055995;28;20229;-91
2021/07/18 02:17:53;;;;;;;3.53;1.90;;;16.80;99.90;;;;;;5056316;28;20202;-92
2021/07/18 02:20:20;;;;;;;4.63;1.57;;;16.80;99.90;;;;;;5056562;28;20174;-91
2021/07/18 02:22:49;;;;;;;4.70;1.43;;;16.80;99.90;;;;;;5055747;28;20177;-92
2021/07/18 02:25:18;;;;;;;3.70;1.03;;;16.80;99.90;;;;;;5057348;28;20413;-86
2021/07/18 02:27:43;;;;;;;3.53;1.33;;;16.80;99.90;;;;;;5057467;28;20460;-87
2021/07/18 02:30:12;;;;;;;8.90;1.80;;;16.90;99.90;;;;;;5055125;28;20839;-88
2021/07/18 02:32:38;;;;;;;3.63;1.50;;;16.90;99.90;;;;;;5054984;28;20190;-87
2021/07/18 02:35:06;;;;;;;3.27;1.13;;;16.80;99.90;;;;;;5055093;28;20997;-86
2021/07/18 02:37:32;;;;;;;4.23;2.37;;;16.80;99.90;;;;;;5055271;28;20173;-88
2021/07/18 02:39:57;;;;;;;3.10;1.17;;;16.80;99.90;;;;;;5073068;28;20482;-87
2021/07/18 02:42:23;;;;;;;3.20;1.80;;;16.70;99.90;;;;;;5072790;28;20413;-88
2021/07/18 02:44:49;;;;;;;4.93;1.40;;;16.70;99.90;;;;;;5072870;28;20170;-87
2021/07/18 02:47:14;;;;;;;4.10;2.53;;;16.70;99.90;;;;;;5071774;28;20449;-86
2021/07/18 02:49:40;;;;;;;6.13;1.87;;;16.80;99.90;;;;;;5055024;28;20222;-86
2021/07/18 02:52:08;;;;;;;6.10;2.20;;;16.80;99.90;;;;;;5055056;28;20177;-87
2021/07/18 02:54:34;;;;;;;6.30;2.20;;;16.80;99.90;;;;;;5072777;28;20660;-88
2021/07/18 02:57:00;;;;;;;10.07;3.00;;;16.80;99.90;;;;;;5072987;28;20400;-88
2021/07/18 02:59:26;;;;;;;8.03;2.00;;;16.90;99.90;;;;;;5071695;28;20768;-88
2021/07/18 03:01:51;;;;;;;3.47;1.50;;;16.90;99.90;;;;;;5055207;28;20306;-86
2021/07/18 03:04:17;;;;;;;4.93;1.47;;;16.80;99.90;;;;;;5072762;28;20701;-88
2021/07/18 03:06:42;;;;;;;3.20;1.80;;;16.80;99.90;;;;;;5054955;28;20248;-88
2021/07/18 03:09:08;;;;;;;8.10;1.47;;;16.90;99.90;;;;;;5072759;28;20210;-86
2021/07/18 03:11:34;;;;;;;6.03;1.70;;;16.90;99.90;;;;;;5072606;28;20166;-87
2021/07/18 03:13:59;;;;;;;3.60;1.37;;;16.80;99.90;;;;;;5050812;28;20283;-87
2021/07/18 03:16:25;;;;;;;4.83;1.70;;;16.80;99.90;;;;;;5051261;28;20261;-87
2021/07/18 03:18:50;;;;;;;4.53;1.63;;;16.80;99.90;;;;;;5051298;28;20666;-86
2021/07/18 03:21:16;;;;;;;5.23;1.73;;;16.90;99.90;;;;;;5052569;28;20182;-86
2021/07/18 03:23:41;;;;;;;6.73;2.27;;;17.00;99.90;;;;;;5050345;28;20171;-88
2021/07/18 03:26:07;;;;;;;5.17;2.70;;;17.00;99.90;;;;;;5052714;28;20194;-89
2021/07/18 03:28:33;;;;;;;4.73;1.80;;;17.00;99.90;;;;;;5049985;28;20218;-87
2021/07/18 03:30:58;;;;;;;6.13;2.37;;;17.10;99.90;;;;;;5052694;28;20179;-87
2021/07/18 03:33:24;;;;;;;4.77;1.73;;;17.00;99.90;;;;;;5052377;28;20182;-87
2021/07/18 03:35:52;;;;;;;4.27;1.80;;;17.10;99.90;;;;;;5051670;28;20163;-89
2021/07/18 03:38:18;;;;;;;3.60;1.70;;;17.10;99.90;;;;;;5052777;28;20636;-89
2021/07/18 03:40:44;;;;;;;6.77;1.90;;;17.10;99.90;;;;;;5055070;28;20427;-89
2021/07/18 03:43:09;;;;;;;4.10;1.40;;;17.10;99.90;;;;;;5056152;28;20417;-88
2021/07/18 03:45:35;;;;;;;5.07;1.90;;;17.10;99.90;;;;;;5054556;28;20183;-88
2021/07/18 03:48:01;;;;;;;3.77;1.43;;;17.10;99.90;;;;;;5054072;28;20198;-86
2021/07/18 03:50:27;;;;;;;4.87;1.60;;;17.10;99.90;;;;;;5054465;28;20270;-88
2021/07/18 03:52:53;;;;;;;7.83;3.43;;;17.10;99.90;;;;;;5054172;28;20294;-88
2021/07/18 03:55:19;;;;;;;5.63;2.20;;;17.20;99.90;;;;;;5055968;28;20262;-88
2021/07/18 03:57:45;;;;;;;7.07;1.97;;;17.20;99.90;;;;;;5057336;28;20437;-85
2021/07/18 04:00:12;;;;;;;4.00;1.63;;;17.10;99.90;;;;;;5057588;28;20190;-87
2021/07/18 04:02:37;;;;;;;4.30;1.80;;;17.20;99.90;;;;;;5054394;28;20248;-87
2021/07/18 04:05:03;;;;;;;6.00;2.23;;;17.10;99.90;;;;;;5054136;28;20509;-87
2021/07/18 04:07:32;;;;;;;7.73;2.33;;;17.20;99.90;;;;;;5054499;28;20176;-87
2021/07/18 04:10:00;;;;;;;2.80;1.63;;;17.20;99.90;;;;;;5054283;28;20443;-87
2021/07/18 04:12:26;;;;;;;2.90;1.53;;;17.20;99.90;;;;;;5054155;28;20540;-87
2021/07/18 04:14:51;;;;;;;7.47;2.00;;;17.30;99.90;;;;;;5053623;28;20560;-88
2021/07/18 04:17:17;;;;;;;6.20;2.30;;;17.40;99.90;;;;;;5053979;28;20188;-87
2021/07/18 04:19:42;;;;;;;4.70;2.33;;;17.40;99.90;;;;;;5054303;28;20326;-88
2021/07/18 04:22:08;;;;;;;4.23;2.40;;;17.50;99.90;;;;;;5054127;28;20183;-86
2021/07/18 04:24:33;;;;;;;4.50;2.30;;;17.60;99.90;;;;;;5053278;28;20290;-89
2021/07/18 04:26:59;;;;;;;6.10;1.60;;;17.70;99.90;;;;;;5055567;28;20194;-86
2021/07/18 04:29:25;;;;;;;4.17;1.70;;;17.80;99.90;;;;;;5054351;28;20682;-91
2021/07/18 04:31:50;;;;;;;4.93;1.83;;;18.00;99.90;;;;;;5054375;28;20174;-88
2021/07/18 04:34:16;;;;;;;4.77;1.60;;;18.00;99.90;;;;;;5055191;28;20202;-87
2021/07/18 04:36:41;;;;;;;3.93;1.70;;;18.00;99.90;;;;;;5055809;28;20655;-88
2021/07/18 04:39:07;;;;;;;5.30;2.17;;;18.10;99.90;;;;;;5054696;28;20188;-89
2021/07/18 04:41:33;;;;;;;4.50;1.47;;;18.10;99.90;;;;;;5054367;28;20663;-90
2021/07/18 04:43:58;;;;;;;4.70;1.60;;;18.10;99.90;;;;;;5054311;28;20179;-90
2021/07/18 04:46:24;;;;;;;6.93;3.03;;;18.10;99.90;;;;;;5055448;28;20204;-91
2021/07/18 04:48:50;;;;;;;6.93;1.97;;;18.10;99.90;;;;;;5054105;28;20226;-90
2021/07/18 04:51:17;;;;;;;6.20;1.60;;;18.20;99.90;;;;;;5054950;28;20546;-89
2021/07/18 04:53:43;;;;;;;3.13;1.70;;;18.20;99.90;;;;;;5053418;28;20538;-88
2021/07/18 04:56:08;;;;;;;5.63;1.53;;;18.30;99.90;;;;;;5055250;28;20438;-87
2021/07/18 04:58:34;;;;;;;4.73;1.73;;;18.40;99.90;;;;;;5053307;28;20176;-87
2021/07/18 05:00:59;;;;;;;8.63;2.43;;;18.40;99.90;;;;;;5053823;28;20162;-90
2021/07/18 05:03:25;;;;;;;5.60;2.10;;;18.40;99.90;;;;;;5052633;28;20617;-87
2021/07/18 05:05:51;;;;;;;3.67;1.80;;;18.40;99.90;;;;;;5053217;28;20172;-88
2021/07/18 05:08:16;;;;;;;4.37;1.93;;;18.30;99.90;;;;;;5053090;28;20301;-86
2021/07/18 05:10:42;;;;;;;4.57;2.50;;;18.20;99.90;;;;;;5054136;28;20177;-86
2021/07/18 05:13:07;;;;;;;5.83;1.60;;;18.30;99.90;;;;;;5051958;28;20178;-86
2021/07/18 05:15:34;;;;;;;8.57;2.20;;;18.40;99.90;;;;;;5052716;28;20227;-86
2021/07/18 05:18:11;;;;;;;5.77;2.50;;;18.40;99.90;;;;;;5052870;28;20177;-88
2021/07/18 05:20:38;;;;;;;4.00;1.60;;;18.40;99.90;;;;;;5047151;28;20427;-87
2021/07/18 05:23:04;;;;;;;3.53;1.67;;;18.40;99.90;;;;;;5054611;28;20457;-87
2021/07/18 05:25:29;;;;;;;6.33;2.23;;;18.40;99.90;;;;;;5054013;28;20478;-86
2021/07/18 05:27:55;;;;;;;3.97;1.80;;;18.50;99.90;;;;;;5053907;28;20209;-87
2021/07/18 05:30:20;;;;;;;3.67;1.10;;;18.50;99.90;;;;;;5058318;28;20555;-88
2021/07/18 05:32:46;;;;;;;3.00;1.80;;;18.60;99.90;;;;;;5052325;28;20173;-91
2021/07/18 05:35:12;;;;;;;3.60;1.03;;;18.70;99.90;;;;;;5053664;28;20186;-88
2021/07/18 05:37:38;;;;;;;5.67;1.17;;;18.90;99.90;;;;;;5052830;28;20181;-88
2021/07/18 05:40:08;;;;;;;3.80;1.50;;;19.00;99.90;;;;;;5052806;28;20432;-87
2021/07/18 05:42:34;;;;;;;4.00;1.93;;;19.30;99.90;;;;;;5052721;28;20267;-88
2021/07/18 05:45:00;;;;;;;4.67;1.87;;;19.40;99.90;;;;;;5052033;28;20431;-88
2021/07/18 05:47:27;;;;;;;3.83;1.20;;;19.60;99.90;;;;;;5054566;28;20419;-90
2021/07/18 05:49:53;;;;;;;4.73;1.20;;;19.70;99.90;;;;;;5072544;28;20198;-87
2021/07/18 05:52:19;;;;;;;4.30;1.73;;;19.90;99.90;;;;;;5072156;28;20417;-91
2021/07/18 05:54:44;;;;;;;3.30;1.40;;;20.10;99.90;;;;;;5074072;28;20190;-89
2021/07/18 05:57:10;;;;;;;3.90;1.23;;;20.30;99.90;;;;;;5072902;28;20175;-89
2021/07/18 05:59:36;;;;;;;2.27;1.10;;;20.40;99.90;;;;;;5072189;28;20709;-89
2021/07/18 06:02:01;;;;;;;3.13;1.50;;;20.70;99.90;;;;;;5071883;28;20217;-89
2021/07/18 06:04:27;;;;;;;7.67;1.77;;;21.00;99.90;;;;;;5072759;28;20618;-90
2021/07/18 06:06:53;;;;;;;4.93;1.50;;;21.20;99.90;;;;;;5072693;28;20177;-90
2021/07/18 06:09:19;;;;;;;2.40;1.30;;;21.10;99.90;;;;;;5073866;28;20470;-90
2021/07/18 06:11:45;;;;;;;4.83;1.43;;;21.30;99.90;;;;;;5073690;28;20407;-89
2021/07/18 06:14:10;;;;;;;5.07;0.90;;;21.40;99.90;;;;;;5071823;28;20219;-88
2021/07/18 06:16:36;;;;;;;5.20;1.13;;;21.40;99.90;;;;;;5072193;28;20172;-89
2021/07/18 06:19:02;;;;;;;3.07;0.60;;;21.40;99.90;;;;;;5073301;28;20262;-90
2021/07/18 06:21:27;;;;;;;3.40;1.80;;;21.50;99.90;;;;;;5073515;28;20175;-89
2021/07/18 06:23:53;;;;;;;3.03;0.83;;;21.50;99.90;;;;;;5072223;28;20496;-89
2021/07/18 06:26:18;;;;;;;6.60;3.40;;;21.60;99.90;;;;;;5073180;28;20246;-87
2021/07/18 06:28:44;;;;;;;2.77;1.33;;;21.70;99.90;;;;;;5071340;28;20214;-88
2021/07/18 06:31:10;;;;;;;3.20;1.20;;;22.00;99.90;;;;;;5073116;28;20173;-87
2021/07/18 06:33:37;;;;;;;2.63;1.37;;;22.10;99.90;;;;;;5072830;28;20181;-87
2021/07/18 06:36:03;;;;;;;5.83;0.87;;;22.10;99.90;;;;;;5073016;28;20175;-87
2021/07/18 06:38:28;;;;;;;3.23;1.20;;;22.40;99.90;;;;;;5072680;28;20435;-87
2021/07/18 06:40:54;;;;;;;9.57;1.30;;;22.60;61.30;;;;;;5073005;28;20409;-88
2021/07/18 06:43:20;;;;;;;2.83;1.13;;;22.90;99.90;;;;;;5072762;28;20179;-89
2021/07/18 06:45:46;;;;;;;3.03;1.20;;;23.10;25.00;;;;;;5072936;28;20453;-87
2021/07/18 06:48:12;;;;;;;3.70;1.00;;;24.10;1.00;;;;;;5072768;28;20204;-88
2021/07/18 06:50:38;;;;;;;7.10;1.23;;;25.80;99.90;;;;;;5072864;28;20188;-88
2021/07/18 06:53:04;;;;;;;2.30;0.70;;;26.60;19.50;;;;;;5072732;28;20413;-87
2021/07/18 06:55:29;;;;;;;2.30;0.80;;;27.60;1.00;;;;;;5072931;28;20176;-87
2021/07/18 06:57:55;;;;;;;3.53;1.37;;;28.00;99.90;;;;;;5071200;28;20648;-93
2021/07/18 07:00:22;;;;;;;4.37;1.27;;;28.10;1.00;;;;;;5080071;28;20208;-88
2021/07/18 07:02:48;;;;;;;4.40;1.40;;;28.00;1.00;;;;;;5074744;28;20177;-87
2021/07/18 07:05:13;;;;;;;3.53;1.47;;;28.10;99.90;;;;;;5071351;28;20480;-88
2021/07/18 07:07:40;;;;;;;3.87;1.57;;;28.30;99.90;;;;;;5072668;28;20173;-90
2021/07/18 07:10:06;;;;;;;3.10;0.77;;;28.30;99.90;;;;;;5072877;28;20177;-91
2021/07/18 07:12:32;;;;;;;3.30;1.00;;;28.70;99.90;;;;;;5071166;28;20415;-88
2021/07/18 07:15:00;;;;;;;3.17;1.03;;;28.60;99.90;;;;;;5087526;28;20453;-90
2021/07/18 07:17:25;;;;;;;4.60;0.90;;;28.70;99.90;;;;;;5078840;28;20180;-92
2021/07/18 07:19:51;;;;;;;3.13;0.67;;;28.60;1.00;;;;;;5096730;28;20428;-88
2021/07/18 07:22:17;;;;;;;3.13;0.80;;;28.70;1.00;;;;;;5096796;28;20175;-88
2021/07/18 07:24:42;;;;;;;2.50;0.50;;;29.10;1.00;;;;;;5078553;28;20194;-90
2021/07/18 07:27:08;;;;;;;3.50;1.40;;;29.10;1.00;;;;;;5078479;28;20199;-88
2021/07/18 07:29:33;;;;;;;3.27;0.80;;;28.90;1.00;;;;;;5096323;28;20667;-90
2021/07/18 07:31:59;;;;;;;3.27;1.27;;;29.20;1.00;;;;;;5078563;28;20569;-91
2021/07/18 07:34:24;;;;;;;2.80;0.60;;;29.40;1.00;;;;;;5096652;28;20522;-90
2021/07/18 07:36:50;;;;;;;3.53;1.00;;;29.20;1.00;;;;;;5078254;28;20176;-90
2021/07/18 07:39:16;;;;;;;2.97;0.93;;;29.20;1.00;;;;;;5078057;28;20202;-91
2021/07/18 07:41:41;;;;;;;4.23;0.80;;;29.50;1.00;;;;;;5078185;28;20215;-90
2021/07/18 07:44:07;;;;;;;2.60;0.73;;;29.90;1.00;;;;;;5077883;28;20275;-89
2021/07/18 07:46:33;;;;;;;3.00;0.80;;;29.40;31.40;;;;;;5065390;28;20215;-89
2021/07/18 07:48:58;;;;;;;5.80;1.27;;;29.70;1.00;;;;;;5074942;28;20219;-88
2021/07/18 07:51:24;;;;;;;3.03;0.60;;;30.40;1.00;;;;;;5075552;28;20693;-88
2021/07/18 07:53:50;;;;;;;3.37;0.60;;;30.50;92.00;;;;;;5057487;28;20597;-89
2021/07/18 07:56:17;;;;;;;4.90;1.20;;;30.60;91.90;;;;;;5061098;28;20524;-88
2021/07/18 07:58:42;;;;;;;4.97;1.00;;;30.70;91.00;;;;;;5057303;28;20462;-89
2021/07/18 08:01:08;;;;;;;3.43;1.03;;;30.70;92.20;;;;;;5057167;28;20958;-89
2021/07/18 08:03:34;;;;;;;2.10;0.90;;;30.30;91.40;;;;;;5082355;28;20217;-88
2021/07/18 08:05:59;;;;;;;2.37;0.83;;;28.80;93.90;;;;;;5074666;28;20522;-89
2021/07/18 08:08:25;;;;;;;3.10;0.80;;;29.70;92.90;;;;;;5066025;28;20685;-90
2021/07/18 08:10:51;;;;;;;3.57;1.23;;;30.20;92.20;;;;;;5068365;28;20169;-89
2021/07/18 08:13:16;;;;;;;4.10;1.03;;;29.30;92.70;;;;;;5066704;28;20173;-88
2021/07/18 08:15:42;;;;;;;3.80;1.20;;;29.50;91.60;;;;;;5084477;28;20729;-89
2021/07/18 08:18:07;;;;;;;3.30;0.80;;;30.30;92.80;;;;;;5068256;28;20161;-89
2021/07/18 08:20:33;;;;;;;3.03;0.93;;;30.80;89.70;;;;;;5086151;28;20172;-90
2021/07/18 08:22:59;;;;;;;2.60;0.60;;;31.00;88.80;;;;;;5066670;28;20588;-87
2021/07/18 08:25:26;;;;;;;2.90;0.77;;;30.90;88.00;;;;;;5064390;28;20216;-86
2021/07/18 08:27:52;;;;;;;3.47;0.40;;;31.00;88.00;;;;;;5067692;28;20536;-87
2021/07/18 08:30:18;;;;;;;1.90;0.80;;;31.20;85.90;;;;;;5085038;28;20423;-86
2021/07/18 08:32:44;;;;;;;1.67;1.00;;;31.00;87.80;;;;;;5070173;28;20467;-87
2021/07/18 08:35:11;;;;;;;3.20;0.87;;;31.10;88.40;;;;;;5083251;28;20423;-87
2021/07/18 08:37:37;;;;;;;2.60;0.60;;;31.20;85.00;;;;;;5077993;28;20176;-90
2021/07/18 08:40:08;;;;;;;2.03;0.83;;;30.80;85.00;;;;;;5075275;28;20415;-90
2021/07/18 08:42:35;;;;;;;2.03;0.50;;;31.30;87.40;;;;;;5074647;28;20403;-91
2021/07/18 08:45:02;;;;;;;2.60;0.90;;;31.60;84.70;;;;;;5075134;28;20430;-88
2021/07/18 08:47:28;;;;;;;2.63;1.23;;;31.10;83.10;;;;;;5075960;28;20411;-89
2021/07/18 08:49:54;;;;;;;3.67;0.80;;;31.50;88.30;;;;;;5076290;28;20463;-89
2021/07/18 08:52:21;;;;;;;2.90;0.70;;;31.10;82.40;;;;;;5076385;28;20176;-91
2021/07/18 08:54:49;;;;;;;2.87;0.93;;;28.50;93.60;;;;;;5058249;28;20176;-88
2021/07/18 08:57:17;;;;;;;2.60;0.90;;;29.10;93.60;;;;;;5076130;28;20915;-87
2021/07/18 08:59:43;;;;;;;2.10;0.90;;;30.80;88.50;;;;;;5092888;28;20433;-86
2021/07/18 09:02:09;;;;;;;1.77;0.70;;;30.70;86.90;;;;;;5091817;28;20438;-89
2021/07/18 09:04:34;;;;;;;3.23;0.87;;;30.60;86.20;;;;;;5094607;28;20224;-89
2021/07/18 09:07:08;;;;;;;3.10;0.40;;;31.20;85.40;;;;;;5092329;28;20176;-89
2021/07/18 09:09:34;;;;;;;7.13;1.30;;;31.90;83.10;;;;;;5094928;28;20192;-88
2021/07/18 09:12:08;;;;;;;3.70;1.33;;;29.90;90.40;;;;;;5076420;28;20430;-89
2021/07/18 09:14:38;;;;;;;3.63;1.00;;;29.70;91.80;;;;;;5086939;28;20693;-90
2021/07/18 09:17:06;;;;;;;1.80;0.80;;;31.30;86.90;;;;;;5056714;28;20400;-90
2021/07/18 09:19:36;;;;;;;3.57;1.37;;;30.50;87.10;;;;;;5056816;28;20572;-90
2021/07/18 09:22:04;;;;;;;1.73;0.73;;;28.10;96.90;;;;;;5073772;28;20419;-89
2021/07/18 09:24:46;;;;;;;2.60;0.90;;;26.80;99.90;;;;;;5068823;28;20501;-93
2021/07/18 09:27:22;;;;;;;6.20;1.20;;;29.60;92.90;;;;;;5073503;28;20790;-91
2021/07/18 09:29:55;;;;;;;7.93;1.57;;;30.90;90.50;;;;;;5071543;28;20476;-90
2021/07/18 09:32:31;;;;;;;4.10;1.07;;;31.60;87.10;;;;;;5074876;28;20423;-89
2021/07/18 09:34:59;;;;;;;3.40;0.83;;;31.70;83.20;;;;;;5080120;28;20428;-89
2021/07/18 09:37:28;;;;;;;4.20;1.13;;;29.40;92.30;;;;;;5082851;28;20434;-91
2021/07/18 09:39:57;;;;;;;2.73;0.60;;;27.90;97.30;;;;;;5082658;28;20482;-91
2021/07/18 09:42:28;;;;;;;3.50;0.87;;;29.00;95.00;;;;;;5088250;28;20415;-92
2021/07/18 09:44:54;;;;;;;5.93;1.40;;;30.70;90.20;;;;;;5064560;28;20410;-90
2021/07/18 09:47:20;;;;;;;2.17;0.50;;;30.80;85.10;;;;;;5084446;28;20410;-93
2021/07/18 09:49:45;;;;;;;2.97;0.73;;;31.30;85.10;;;;;;5091241;28;20208;-92
2021/07/18 09:52:32;;;;;;;4.23;1.40;;;31.70;82.70;;;;;;5064439;28;20469;-91
2021/07/18 09:54:58;;;;;;;4.60;0.80;;;32.00;82.20;;;;;;5066168;28;20187;-93
2021/07/18 09:57:32;;;;;;;3.67;1.50;;;29.80;90.40;;;;;;5085254;28;20418;-92
2021/07/18 09:59:58;;;;;;;4.33;1.20;;;27.90;97.80;;;;;;5068261;28;20192;-92
2021/07/18 10:02:28;;;;;;;4.43;1.37;;;27.20;99.90;;;;;;5054898;28;20423;-92
2021/07/18 10:04:55;;;;;;;6.30;0.97;;;29.60;92.00;;;;;;5065882;28;20177;-93
2021/07/18 10:07:32;;;;;;;5.03;0.93;;;28.30;95.80;;;;;;5059554;28;20419;-91
2021/07/18 10:09:59;;;;;;;2.53;1.10;;;29.40;93.40;;;;;;5059865;28;20493;-91
2021/07/18 10:12:25;;;;;;;3.20;1.07;;;30.40;93.20;;;;;;5064269;28;20418;-93
2021/07/18 10:14:52;;;;;;;5.60;1.43;;;29.30;92.20;;;;;;5064342;28;20831;-93
2021/07/18 10:17:18;;;;;;;2.23;1.00;;;28.50;96.70;;;;;;5065017;28;20471;-92
2021/07/18 10:19:44;;;;;;;3.60;1.67;;;30.60;93.60;;;;;;5081294;28;20510;-90
2021/07/18 10:22:11;;;;;;;4.20;1.50;;;29.30;93.00;;;;;;5054788;28;20211;-91
2021/07/18 10:24:39;;;;;;;5.67;1.40;;;28.00;98.90;;;;;;5054506;28;20168;-91
2021/07/18 10:27:05;;;;;;;4.30;1.17;;;27.90;99.50;;;;;;5055125;28;20419;-94
2021/07/18 10:29:32;;;;;;;3.03;1.23;;;29.60;94.10;;;;;;5055541;28;20492;-92
2021/07/18 10:32:03;;;;;;;3.60;1.00;;;30.20;92.00;;;;;;5039207;28;20416;-90
2021/07/18 10:34:30;;;;;;;5.60;1.03;;;28.80;93.00;;;;;;5055682;28;20907;-90
2021/07/18 10:36:56;;;;;;;2.80;0.80;;;27.60;99.70;;;;;;5056016;28;20416;-90
2021/07/18 10:39:34;;;;;;;3.07;0.73;;;26.70;99.90;;;;;;5055989;28;20837;-90
2021/07/18 10:42:01;;;;;;;6.40;1.27;;;29.20;96.70;;;;;;5055430;28;20915;-88
2021/07/18 10:44:39;;;;;;;4.70;0.90;;;30.00;94.40;;;;;;5055072;28;20411;-89
2021/07/18 10:47:24;;;;;;;3.27;0.80;;;28.10;96.00;;;;;;5055444;28;20503;-89
2021/07/18 10:49:59;;;;;;;5.47;0.90;;;27.20;99.90;;;;;;5076600;28;20486;-89
2021/07/18 10:52:30;;;;;;;4.47;1.33;;;28.90;97.90;;;;;;5043232;28;20419;-90
2021/07/18 10:54:56;;;;;;;3.00;0.80;;;30.10;90.90;;;;;;5059793;28;20423;-89
2021/07/18 10:57:32;;;;;;;3.33;0.90;;;29.00;94.90;;;;;;5077733;28;20414;-92
2021/07/18 11:00:22;;;;;;;4.60;0.53;;;29.20;93.60;;;;;;5059827;28;20173;-90
2021/07/18 11:03:12;;;;;;;3.57;1.30;;;29.80;92.50;;;;;;5059887;28;20426;-89
2021/07/18 11:05:46;;;;;;;1.73;0.97;;;30.00;93.30;;;;;;5059635;28;20416;-90
2021/07/18 11:08:13;;;;;;;2.80;0.73;;;30.20;91.70;;;;;;5059437;28;20455;-91
2021/07/18 11:10:55;;;;;;;6.03;4.40;;;29.50;92.80;;;;;;5077581;28;20458;-92
2021/07/18 11:13:22;;;;;;;4.03;0.90;;;30.60;90.70;;;;;;5077366;28;20407;-91
2021/07/18 11:15:48;;;;;;;4.20;0.90;;;30.90;89.80;;;;;;5077776;28;20958;-91
2021/07/18 11:18:32;;;;;;;5.93;2.20;;;31.20;85.40;;;;;;5060783;28;20503;-93
2021/07/18 11:20:58;;;;;;;3.57;1.50;;;29.20;91.50;;;;;;5061745;28;20767;-92
2021/07/18 11:23:39;;;;;;;8.00;1.13;;;30.40;91.60;;;;;;5066169;28;20502;-92
2021/07/18 11:26:04;;;;;;;8.57;0.93;;;30.10;88.10;;;;;;5064052;28;20421;-93
2021/07/18 11:28:30;;;;;;;2.10;0.73;;;29.60;92.20;;;;;;5068434;28;20537;-93
2021/07/18 11:31:12;;;;;;;3.63;0.83;;;29.30;92.00;;;;;;5066027;28;20253;-93
2021/07/18 11:33:40;;;;;;;3.57;1.17;;;29.60;92.30;;;;;;5063324;28;20437;-94
2021/07/18 11:36:07;;;;;;;3.43;0.93;;;30.40;90.40;;;;;;5066783;28;20429;-88
2021/07/18 11:38:40;;;;;;;4.97;1.00;;;30.90;91.40;;;;;;5080632;28;20414;-94
2021/07/18 11:41:19;;;;;;;3.53;0.83;;;30.40;90.20;;;;;;5064837;28;20433;-90
2021/07/18 11:43:50;;;;;;;5.50;1.10;;;30.50;86.70;;;;;;5075712;28;20444;-85
2021/07/18 11:46:17;;;;;;;3.47;1.60;;;29.60;91.60;;;;;;5075911;28;20410;-86
2021/07/18 11:48:45;;;;;;;2.10;0.80;;;28.60;93.80;;;;;;5076029;28;20848;-86
2021/07/18 11:51:15;;;;;;;3.33;1.17;;;29.20;93.20;;;;;;5075989;28;20460;-85
2021/07/18 11:53:55;;;;;;;5.50;3.17;;;30.10;91.40;;;;;;5075980;28;20408;-86
2021/07/18 11:56:24;;;;;;;33.23;29.73;;;30.40;92.40;;;;;;5075845;28;20446;-87
2021/07/18 11:58:51;;;;;;;3.27;1.13;;;31.10;86.60;;;;;;5057169;28;21002;-86
2021/07/18 12:01:21;;;;;;;1.50;0.83;;;30.80;85.80;;;;;;5074173;28;20443;-86
2021/07/18 12:03:47;;;;;;;2.60;0.80;;;31.30;87.90;;;;;;5075437;28;20984;-86
2021/07/18 12:06:17;;;;;;;2.23;0.50;;;31.30;86.30;;;;;;5075533;28;20502;-86
2021/07/18 12:08:43;;;;;;;2.47;0.50;;;31.60;85.50;;;;;;5083526;28;20288;-86
2021/07/18 12:11:08;;;;;;;4.40;0.90;;;32.00;86.30;;;;;;5077756;28;20509;-87
2021/07/18 12:13:35;;;;;;;3.03;0.50;;;32.00;87.00;;;;;;5074924;28;20252;-85
2021/07/18 12:16:00;;;;;;;1.70;0.73;;;31.60;77.50;;;;;;5075314;28;20208;-86
2021/07/18 12:18:26;;;;;;;0.97;0.20;;;32.00;83.60;;;;;;5075179;28;20761;-86
2021/07/18 12:20:52;;;;;;;2.10;0.70;;;31.40;79.00;;;;;;5075283;28;20655;-86
2021/07/18 12:23:20;;;;;;;2.20;0.73;;;31.50;80.30;;;;;;5075194;28;20173;-86
2021/07/18 12:25:56;;;;;;;2.27;0.63;;;30.10;84.30;;;;;;5075180;28;20238;-85
2021/07/18 12:28:23;;;;;;;3.23;1.00;;;30.20;87.90;;;;;;5074312;28;20481;-85
2021/07/18 12:30:48;;;;;;;2.63;0.80;;;30.90;88.00;;;;;;5074690;28;20415;-85
2021/07/18 12:33:17;;;;;;;3.97;0.93;;;30.90;83.60;;;;;;5074886;28;20423;-85
2021/07/18 12:35:42;;;;;;;4.93;1.33;;;31.20;84.50;;;;;;5056841;28;20656;-86
2021/07/18 12:38:08;;;;;;;3.10;0.70;;;31.30;82.00;;;;;;5074909;28;20447;-87
2021/07/18 12:40:34;;;;;;;3.20;0.47;;;31.20;80.90;;;;;;5056850;28;20253;-86
2021/07/18 12:42:59;;;;;;;1.70;0.70;;;31.70;78.70;;;;;;5056457;28;20569;-85
2021/07/18 12:45:25;;;;;;;2.97;0.50;;;31.90;81.90;;;;;;5074470;28;20271;-86
2021/07/18 12:48:04;;;;;;;2.80;1.10;;;31.60;80.00;;;;;;5074699;28;20196;-84